Hauptseite
METAR-TAF:

METAR-TAF

Flughäfen :

Santa Ana del Yacuma, Bolivien

Breite: 13-46S, Länge: 065-26W, Höhe: 144 m

Beobachtung

Neuester Wetterbericht von vor 1 Stunde und 5 Minuten, um 18:00 UTC
Wind 6 kt aus Nordwest
Temperatur 35°C
Luftfeuchtigkeit 34%
Luftdruck 1015 hPa
Sichtweite: 8000 m

METAR: SLSA 251800Z 31006KT 8000 NSC 35/17 Q1015

Zeit: 15:05 (19:05 UTC)


TAF: fehlend

Wetterbeobachtungen und Prognosen von mehr als 4000 Flughäfen (METAR und TAF Bericht).

Die verfügbaren Stationen werden durch gelbe und rote Markierungen auf der Karte dargestellt.

Führen Sie die Maus auf sie, um den Namen der Station zu sehen.

Darauf klicken, um die Beobachtung von Wetterbeobachtungen und Prognosen zu sehen.

Um die Karte zu ändern : klicken Sie auf den grünen Tasten mit einem schwarzen Kreuz Zum Vergrößern, auf den grünen Button mit einem Gedankenstrich zu verkleinern, oder auf die grünen Pfeile für benachbarte Karten.


METAR-TAF: